Time;durP1;ratioP1;P1;durP2;ratioP2;P2;SDS_P1;SDS_P2;PMS_P1;PMS_P2;Temp;Humidity;BMP_temperature;BMP_pressure;BME280_temperature;BME280_humidity;BME280_pressure;Samples;Min_cycle;Max_cycle;Signal;HPM_P1;HPM_P2
2022/11/28 00:55:16;;;;;;;1999.90;999.90;;;6.30;99.90;;;;;;6776191;77;20154;-84
2022/11/28 01:05:57;;;;;;;1999.90;999.90;;;6.20;99.90;;;;;;6781654;77;20157;-85
2022/11/28 01:16:39;;;;;;;1999.90;999.90;;;6.20;99.90;;;;;;4804369;77;20255;-83
2022/11/28 01:26:40;;;;;;;1999.90;999.90;;;6.10;99.90;;;;;;7181229;76;20213;-75
2022/11/28 01:36:40;;;;;;;1999.90;999.90;;;6.10;99.90;;;;;;6746760;88;20700;-76
2022/11/28 01:46:41;;;;;;;1999.90;999.90;;;6.10;99.90;;;;;;6738136;88;20188;-77
2022/11/28 01:56:52;;;;;;;1999.90;999.90;;;6.00;99.90;;;;;;6737856;88;20216;-77
2022/11/28 02:06:53;;;;;;;1999.90;999.90;;;6.00;99.90;;;;;;6719068;88;20648;-75
2022/11/28 02:17:31;;;;;;;1999.90;999.90;;;6.00;99.90;;;;;;6719876;88;20215;-76
2022/11/28 02:27:40;;;;;;;1999.90;999.90;;;6.00;99.90;;;;;;6719973;88;20327;-75
2022/11/28 02:37:59;;;;;;;1999.90;999.90;;;6.00;99.90;;;;;;6719330;88;20184;-73
2022/11/28 02:48:05;;;;;;;1999.90;999.90;;;6.10;99.90;;;;;;6736512;88;20694;-75
2022/11/28 02:58:07;;;;;;;1999.90;999.90;;;6.20;99.90;;;;;;6735986;88;20181;-74
2022/11/28 03:08:14;;;;;;;1999.90;999.90;;;6.20;99.90;;;;;;6736985;88;20273;-76
2022/11/28 03:18:24;;;;;;;1999.90;999.90;;;6.20;99.90;;;;;;6735423;88;20200;-75
2022/11/28 03:28:34;;;;;;;1999.90;999.90;;;6.30;99.90;;;;;;6719126;88;20583;-75
2022/11/28 03:38:41;;;;;;;1999.90;999.90;;;6.30;99.90;;;;;;6719649;88;20339;-74
2022/11/28 03:48:46;;;;;;;1999.90;999.90;;;6.30;99.90;;;;;;6736459;88;20173;-75
2022/11/28 03:58:50;;;;;;;1999.90;999.90;;;6.30;99.90;;;;;;6737700;88;20661;-73
2022/11/28 04:09:07;;;;;;;1999.90;999.90;;;6.40;99.90;;;;;;6736506;88;20181;-73
2022/11/28 04:19:17;;;;;;;1999.90;999.90;;;6.30;99.90;;;;;;6722549;88;20173;-75
2022/11/28 04:29:22;;;;;;;1999.90;999.90;;;6.40;99.90;;;;;;6729637;88;20209;-74
2022/11/28 04:39:26;;;;;;;1999.90;999.90;;;6.40;99.90;;;;;;6732356;88;20707;-74
2022/11/28 04:49:29;;;;;;;1999.90;999.90;;;6.40;99.90;;;;;;6727618;88;20946;-73
2022/11/28 04:59:30;;;;;;;1999.90;999.90;;;6.40;99.90;;;;;;6726709;88;20194;-74
2022/11/28 05:09:31;;;;;;;1999.90;999.90;;;6.40;99.90;;;;;;6733515;88;20181;-74
2022/11/28 05:19:32;;;;;;;1999.90;999.90;;;6.50;99.90;;;;;;6737531;88;20192;-74
2022/11/28 05:29:33;;;;;;;1999.90;999.90;;;6.40;99.90;;;;;;6738043;88;20214;-74
2022/11/28 05:39:33;;;;;;;1999.90;999.90;;;6.40;99.90;;;;;;6737565;88;20684;-74
2022/11/28 05:49:34;;;;;;;1999.90;999.90;;;6.50;99.90;;;;;;6737279;88;20207;-74
2022/11/28 05:59:35;;;;;;;1999.90;999.90;;;6.50;99.90;;;;;;6737076;88;20191;-74
2022/11/28 06:09:35;;;;;;;1999.90;999.90;;;6.50;99.90;;;;;;6736892;88;20389;-74
2022/11/28 06:19:36;;;;;;;1999.90;999.90;;;6.50;99.90;;;;;;6736270;88;20670;-74
2022/11/28 06:29:36;;;;;;;1999.90;999.90;;;6.60;99.90;;;;;;6734255;88;20185;-74
2022/11/28 06:39:37;;;;;;;1999.90;999.90;;;6.40;99.90;;;;;;6736604;88;20177;-78
2022/11/28 06:49:37;;;;;;;1999.90;999.90;;;6.20;99.90;;;;;;6737748;88;20238;-75
2022/11/28 06:59:38;;;;;;;1999.90;999.90;;;6.00;99.90;;;;;;6734263;88;20226;-76
2022/11/28 07:09:38;;;;;;;1999.90;999.90;;;6.10;99.90;;;;;;6731347;88;20229;-75
2022/11/28 07:19:39;;;;;;;1999.90;999.90;;;6.00;99.90;;;;;;6732248;88;20192;-75
2022/11/28 07:30:00;;;;;;;1999.90;999.90;;;6.00;99.90;;;;;;6775389;76;20236;-82
2022/11/28 07:40:00;;;;;;;1999.90;999.90;;;6.00;99.90;;;;;;6767560;88;21091;-81
2022/11/28 07:50:01;;;;;;;1999.90;999.90;;;6.00;99.90;;;;;;6747799;88;20241;-81
2022/11/28 08:00:03;;;;;;;1999.90;999.90;;;6.00;99.90;;;;;;6748110;88;20150;-82
2022/11/28 08:10:05;;;;;;;1999.90;999.90;;;6.00;99.90;;;;;;6747800;88;20194;-81
2022/11/28 08:20:06;;;;;;;1999.90;999.90;;;6.00;99.90;;;;;;6728212;88;20273;-82
2022/11/28 08:30:08;;;;;;;1999.90;999.90;;;6.10;99.90;;;;;;6698702;88;20175;-81
2022/11/28 08:40:08;;;;;;;1999.90;999.90;;;6.10;99.90;;;;;;6681767;89;20210;-81
2022/11/28 08:50:09;;;;;;;1999.90;999.90;;;6.10;99.90;;;;;;6694138;89;20179;-81
2022/11/28 09:00:10;;;;;;;1999.90;999.90;;;6.20;99.90;;;;;;6690506;88;20230;-81
2022/11/28 09:10:11;;;;;;;1999.90;999.90;;;6.30;99.90;;;;;;6693367;88;20905;-81
2022/11/28 09:20:12;;;;;;;1999.90;999.90;;;6.40;99.90;;;;;;6696534;88;20337;-81
2022/11/28 09:30:13;;;;;;;1999.90;999.90;;;6.50;99.90;;;;;;6723313;88;20735;-80
2022/11/28 09:40:36;;;;;;;1999.90;999.90;;;6.60;99.90;;;;;;6679846;89;20191;-81
2022/11/28 09:50:40;;;;;;;1999.90;999.90;;;6.70;99.90;;;;;;6678492;89;20228;-81
2022/11/28 10:01:07;;;;;;;1999.90;999.90;;;6.70;99.90;;;;;;6692322;89;20280;-81
2022/11/28 10:11:38;;;;;;;1999.90;999.90;;;6.80;99.90;;;;;;6705774;88;20247;-81
2022/11/28 10:21:46;;;;;;;1999.90;999.90;;;6.90;99.90;;;;;;6695701;88;20932;-79
2022/11/28 10:31:50;;;;;;;1999.90;999.90;;;6.90;99.90;;;;;;6697571;88;20178;-82
2022/11/28 10:42:13;;;;;;;1999.90;999.90;;;6.90;99.90;;;;;;6725422;88;20186;-81
2022/11/28 10:52:37;;;;;;;1999.90;999.90;;;6.80;99.90;;;;;;6746427;88;20184;-80
2022/11/28 11:02:47;;;;;;;1999.90;999.90;;;6.70;99.90;;;;;;6731078;88;20245;-79
2022/11/28 11:12:52;;;;;;;1999.90;999.90;;;6.70;99.90;;;;;;6730946;88;20173;-79
2022/11/28 11:22:57;;;;;;;1999.90;999.90;;;6.80;99.90;;;;;;6730963;88;20237;-79
2022/11/28 11:32:59;;;;;;;1999.90;999.90;;;6.80;99.90;;;;;;6743551;88;20159;-80
2022/11/28 11:43:00;;;;;;;1999.90;999.90;;;6.80;99.90;;;;;;6750416;88;20504;-79
2022/11/28 11:53:26;;;;;;;1999.90;999.90;;;6.90;99.90;;;;;;6713859;88;20267;-80
2022/11/28 12:03:45;;;;;;;1999.90;999.90;;;7.00;99.90;;;;;;6646133;89;20990;-81
2022/11/28 12:13:45;;;;;;;1999.90;999.90;;;7.00;99.90;;;;;;6645852;89;20812;-80
2022/11/28 12:24:00;;;;;;;1999.90;999.90;;;7.10;99.90;;;;;;6660065;89;20168;-80
2022/11/28 12:34:20;;;;;;;1999.90;999.90;;;7.00;99.90;;;;;;6668390;89;20184;-80
2022/11/28 12:44:47;;;;;;;1999.90;999.90;;;7.10;99.90;;;;;;6710196;88;20256;-80
2022/11/28 12:55:15;;;;;;;1999.90;999.90;;;7.20;99.90;;;;;;6679136;89;20247;-80
2022/11/28 13:05:18;;;;;;;1999.90;999.90;;;7.30;99.90;;;;;;6711091;88;20242;-81
2022/11/28 13:15:35;;;;;;;1999.90;999.90;;;7.40;99.90;;;;;;6715572;88;20218;-81
2022/11/28 13:25:46;;;;;;;1999.90;999.90;;;7.40;99.90;;;;;;6714715;78;20187;-75
2022/11/28 13:35:46;;;;;;;1999.90;999.90;;;7.40;99.90;;;;;;6709240;88;20582;-75
2022/11/28 13:45:47;;;;;;;1999.90;999.90;;;7.50;99.90;;;;;;6698958;88;20197;-75
2022/11/28 13:55:51;;;;;;;1999.90;999.90;;;7.60;99.90;;;;;;6697875;88;20210;-75
2022/11/28 14:06:01;;;;;;;1999.90;999.90;;;7.70;99.90;;;;;;6700206;88;20739;-77
2022/11/28 14:16:26;;;;;;;1999.90;999.90;;;7.80;99.90;;;;;;6695404;88;20697;-75
2022/11/28 14:26:34;;;;;;;1999.90;999.90;;;7.90;99.90;;;;;;6695244;88;20654;-75
2022/11/28 14:36:40;;;;;;;1999.90;999.90;;;7.90;99.90;;;;;;6698727;88;20565;-76
2022/11/28 14:47:05;;;;;;;1999.90;999.90;;;7.90;99.90;;;;;;6695969;88;20292;-76
2022/11/28 14:57:23;;;;;;;1999.90;999.90;;;8.00;99.90;;;;;;6697187;88;20599;-75
2022/11/28 15:07:54;;;;;;;1999.90;999.90;;;8.00;99.90;;;;;;6696938;88;20204;-76
2022/11/28 15:17:59;;;;;;;1999.90;999.90;;;8.00;99.90;;;;;;6695803;88;20186;-76
2022/11/28 15:28:16;;;;;;;1999.90;999.90;;;8.10;99.90;;;;;;6693538;88;20268;-76
2022/11/28 15:38:17;;;;;;;1999.90;999.90;;;8.20;99.90;;;;;;6693403;88;20711;-77
2022/11/28 15:48:36;;;;;;;1999.90;999.90;;;8.20;99.90;;;;;;6700296;88;20216;-76
2022/11/28 15:58:37;;;;;;;1999.90;999.90;;;8.20;99.90;;;;;;6697593;88;20222;-78
2022/11/28 16:08:46;;;;;;;1999.90;999.90;;;8.10;99.90;;;;;;6701423;88;20205;-77
2022/11/28 16:19:07;;;;;;;1999.90;999.90;;;8.20;99.90;;;;;;6691080;88;20280;-78
2022/11/28 16:29:08;;;;;;;1999.90;999.90;;;8.10;99.90;;;;;;6699041;88;20649;-76
2022/11/28 16:39:08;;;;;;;1999.90;999.90;;;8.10;99.90;;;;;;6699910;88;20194;-79
2022/11/28 16:49:33;;;;;;;1999.90;999.90;;;8.20;99.90;;;;;;6702540;88;20616;-77
2022/11/28 16:59:33;;;;;;;1999.90;999.90;;;8.20;99.90;;;;;;6685446;88;20208;-76
2022/11/28 17:09:35;;;;;;;1999.90;999.90;;;8.20;99.90;;;;;;6687825;88;20198;-77
2022/11/28 17:19:36;;;;;;;1999.90;999.90;;;8.10;99.90;;;;;;6702124;88;20200;-78
2022/11/28 17:29:36;;;;;;;1999.90;999.90;;;8.10;99.90;;;;;;6688878;88;20708;-77
2022/11/28 17:39:37;;;;;;;1999.90;999.90;;;8.10;99.90;;;;;;6686982;88;20707;-76
2022/11/28 17:49:38;;;;;;;1999.90;999.90;;;8.00;99.90;;;;;;6685306;88;20769;-77
2022/11/28 17:59:38;;;;;;;1999.90;999.90;;;8.10;99.90;;;;;;6685639;88;20245;-77
2022/11/28 18:09:39;;;;;;;1999.90;999.90;;;8.10;99.90;;;;;;6684036;88;20216;-77
2022/11/28 18:19:39;;;;;;;1999.90;999.90;;;8.20;99.90;;;;;;6684138;88;20738;-78
2022/11/28 18:29:40;;;;;;;1999.90;999.90;;;8.10;99.90;;;;;;6686533;88;20193;-79
2022/11/28 18:39:40;;;;;;;1999.90;999.90;;;8.20;99.90;;;;;;6717851;88;20815;-76
2022/11/28 18:49:41;;;;;;;1999.90;999.90;;;8.20;99.90;;;;;;6717841;88;20730;-77
2022/11/28 18:59:41;;;;;;;1999.90;999.90;;;8.10;99.90;;;;;;6713697;88;20192;-77
2022/11/28 19:09:43;;;;;;;1999.90;999.90;;;8.20;99.90;;;;;;6714845;88;20213;-77
2022/11/28 19:19:44;;;;;;;1999.90;999.90;;;8.20;99.90;;;;;;6716625;88;20225;-76
2022/11/28 19:29:44;;;;;;;1999.90;999.90;;;8.20;99.90;;;;;;6723639;77;20211;-75
2022/11/28 19:39:45;;;;;;;1999.90;999.90;;;8.10;99.90;;;;;;6716606;88;20562;-75
2022/11/28 19:49:46;;;;;;;1999.90;999.90;;;8.00;99.90;;;;;;6706694;88;20182;-76
2022/11/28 19:59:46;;;;;;;1999.90;999.90;;;8.00;99.90;;;;;;6710593;88;20194;-75
2022/11/28 20:09:47;;;;;;;1999.90;999.90;;;7.90;99.90;;;;;;6707510;88;20219;-74
2022/11/28 20:19:47;;;;;;;1999.90;999.90;;;8.00;99.90;;;;;;6704948;88;20207;-76
2022/11/28 20:29:48;;;;;;;1999.90;999.90;;;8.00;99.90;;;;;;6702861;88;20254;-75
2022/11/28 20:39:49;;;;;;;1999.90;999.90;;;8.00;99.90;;;;;;6703004;88;20511;-74
2022/11/28 20:49:49;;;;;;;1999.90;999.90;;;7.90;99.90;;;;;;6705155;88;20356;-75
2022/11/28 20:59:51;;;;;;;1999.90;999.90;;;7.90;99.90;;;;;;6702901;88;20295;-76
2022/11/28 21:09:58;;;;;;;1999.90;999.90;;;7.80;99.90;;;;;;6706274;88;20182;-73
2022/11/28 21:19:59;;;;;;;1999.90;999.90;;;7.90;99.90;;;;;;6711568;88;20221;-76
2022/11/28 21:29:59;;;;;;;1999.90;999.90;;;8.00;99.90;;;;;;6720986;88;20643;-73
2022/11/28 21:40:00;;;;;;;1999.90;999.90;;;7.90;99.90;;;;;;6712690;88;20243;-73
2022/11/28 21:50:00;;;;;;;1999.90;999.90;;;8.00;99.90;;;;;;6723347;88;20267;-74
2022/11/28 22:00:01;;;;;;;1999.90;999.90;;;7.70;99.90;;;;;;6709218;88;20190;-75
2022/11/28 22:10:03;;;;;;;1999.90;999.90;;;7.70;99.90;;;;;;6707204;88;20321;-73
2022/11/28 22:20:05;;;;;;;1999.90;999.90;;;7.80;99.90;;;;;;6704579;88;20249;-73
2022/11/28 22:30:07;;;;;;;1999.90;999.90;;;7.90;99.90;;;;;;6705190;88;20177;-73
2022/11/28 22:40:08;;;;;;;1999.90;999.90;;;7.90;99.90;;;;;;6705924;88;20315;-73
2022/11/28 22:50:09;;;;;;;1999.90;999.90;;;7.80;99.90;;;;;;6713782;88;20699;-73
2022/11/28 23:00:10;;;;;;;1999.90;999.90;;;7.90;99.90;;;;;;6706163;88;20352;-73
2022/11/28 23:10:11;;;;;;;1999.90;999.90;;;7.80;99.90;;;;;;6704932;88;22204;-73
2022/11/28 23:20:13;;;;;;;1999.90;999.90;;;7.90;99.90;;;;;;6706105;88;20198;-73
2022/11/28 23:30:13;;;;;;;1999.90;999.90;;;8.10;99.90;;;;;;6705838;88;20210;-73
2022/11/28 23:40:14;;;;;;;1999.90;999.90;;;8.10;99.90;;;;;;6706603;88;20299;-74
2022/11/28 23:50:15;;;;;;;1999.90;999.90;;;8.10;99.90;;;;;;6707565;88;20690;-73
